sensor_id;sensor_type;location;lat;lon;timestamp;pressure;altitude;pressure_sealevel;temperature;humidity
74905;BME280;63465;50.862;6.220;2024-01-07T00:01:20;99810.41;;;1.03;100.00
74905;BME280;63465;50.862;6.220;2024-01-07T00:03:46;99813.22;;;0.95;100.00
74905;BME280;63465;50.862;6.220;2024-01-07T00:06:11;99816.56;;;0.99;100.00
74905;BME280;63465;50.862;6.220;2024-01-07T00:08:37;99819.03;;;1.02;100.00
74905;BME280;63465;50.862;6.220;2024-01-07T00:11:02;99813.22;;;0.95;100.00
74905;BME280;63465;50.862;6.220;2024-01-07T00:13:27;99826.88;;;0.99;100.00
74905;BME280;63465;50.862;6.220;2024-01-07T00:15:52;99826.59;;;1.08;100.00
74905;BME280;63465;50.862;6.220;2024-01-07T00:18:20;99834.31;;;1.10;100.00
74905;BME280;63465;50.862;6.220;2024-01-07T00:20:45;99836.41;;;0.97;100.00
74905;BME280;63465;50.862;6.220;2024-01-07T00:23:10;99837.22;;;0.99;100.00
74905;BME280;63465;50.862;6.220;2024-01-07T00:25:36;99839.69;;;1.02;100.00
74905;BME280;63465;50.862;6.220;2024-01-07T00:28:01;99842.19;;;1.05;100.00
74905;BME280;63465;50.862;6.220;2024-01-07T00:30:26;99835.38;;;1.03;100.00
74905;BME280;63465;50.862;6.220;2024-01-07T00:32:52;99833.66;;;1.03;100.00
74905;BME280;63465;50.862;6.220;2024-01-07T00:35:17;99840.94;;;0.89;100.00
74905;BME280;63465;50.862;6.220;2024-01-07T00:37:43;99839.53;;;0.79;100.00
74905;BME280;63465;50.862;6.220;2024-01-07T00:40:08;99842.78;;;0.85;100.00
74905;BME280;63465;50.862;6.220;2024-01-07T00:42:34;99845.22;;;0.90;100.00
74905;BME280;63465;50.862;6.220;2024-01-07T00:44:59;99846.13;;;0.89;100.00
74905;BME280;63465;50.862;6.220;2024-01-07T00:47:24;99842.09;;;0.79;100.00
74905;BME280;63465;50.862;6.220;2024-01-07T00:49:49;99841.19;;;0.81;100.00
74905;BME280;63465;50.862;6.220;2024-01-07T00:52:15;99847.91;;;0.87;100.00
74905;BME280;63465;50.862;6.220;2024-01-07T00:54:40;99847.94;;;0.85;100.00
74905;BME280;63465;50.862;6.220;2024-01-07T00:57:05;99844.38;;;0.89;100.00
74905;BME280;63465;50.862;6.220;2024-01-07T00:59:31;99850.31;;;0.93;100.00
74905;BME280;63465;50.862;6.220;2024-01-07T01:01:56;99845.31;;;0.87;100.00
74905;BME280;63465;50.862;6.220;2024-01-07T01:04:22;99857.59;;;0.79;100.00
74905;BME280;63465;50.862;6.220;2024-01-07T01:06:47;99857.59;;;0.79;100.00
74905;BME280;63465;50.862;6.220;2024-01-07T01:09:12;99853.06;;;0.87;100.00
74905;BME280;63465;50.862;6.220;2024-01-07T01:11:38;99855.50;;;0.91;100.00
74905;BME280;63465;50.862;6.220;2024-01-07T01:14:03;99858.63;;;1.03;100.00
74905;BME280;63465;50.862;6.220;2024-01-07T01:16:28;99857.88;;;0.99;100.00
74905;BME280;63465;50.862;6.220;2024-01-07T01:18:54;99859.59;;;0.99;100.00
74905;BME280;63465;50.862;6.220;2024-01-07T01:21:19;99860.75;;;0.88;100.00
74905;BME280;63465;50.862;6.220;2024-01-07T01:23:46;99866.00;;;0.85;100.00
74905;BME280;63465;50.862;6.220;2024-01-07T01:26:11;99866.75;;;0.89;100.00
74905;BME280;63465;50.862;6.220;2024-01-07T01:28:36;99873.09;;;0.79;100.00
74905;BME280;63465;50.862;6.220;2024-01-07T01:31:02;99884.06;;;0.85;100.00
74905;BME280;63465;50.862;6.220;2024-01-07T01:33:27;99879.16;;;0.76;100.00
74905;BME280;63465;50.862;6.220;2024-01-07T01:35:52;99874.50;;;0.89;100.00
74905;BME280;63465;50.862;6.220;2024-01-07T01:38:17;99873.66;;;0.88;100.00
74905;BME280;63465;50.862;6.220;2024-01-07T01:40:43;99888.13;;;0.94;100.00
74905;BME280;63465;50.862;6.220;2024-01-07T01:43:08;99887.91;;;1.02;100.00
74905;BME280;63465;50.862;6.220;2024-01-07T01:45:33;99894.66;;;0.76;100.00
74905;BME280;63465;50.862;6.220;2024-01-07T01:47:59;99896.06;;;0.88;100.00
74905;BME280;63465;50.862;6.220;2024-01-07T01:50:25;99896.59;;;0.99;100.00
74905;BME280;63465;50.862;6.220;2024-01-07T01:52:50;99910.66;;;0.89;100.00
74905;BME280;63465;50.862;6.220;2024-01-07T01:55:16;99907.22;;;0.88;100.00
74905;BME280;63465;50.862;6.220;2024-01-07T01:57:43;99898.19;;;1.03;100.00
74905;BME280;63465;50.862;6.220;2024-01-07T02:00:09;99906.41;;;0.86;100.00
74905;BME280;63465;50.862;6.220;2024-01-07T02:02:35;99895.91;;;0.92;100.00
74905;BME280;63465;50.862;6.220;2024-01-07T02:05:03;99902.09;;;0.87;100.00
74905;BME280;63465;50.862;6.220;2024-01-07T02:07:30;99908.38;;;0.78;100.00
74905;BME280;63465;50.862;6.220;2024-01-07T02:09:56;99911.88;;;0.76;100.00
74905;BME280;63465;50.862;6.220;2024-01-07T02:12:21;99916.41;;;0.68;100.00
74905;BME280;63465;50.862;6.220;2024-01-07T02:14:46;99916.06;;;0.80;100.00
74905;BME280;63465;50.862;6.220;2024-01-07T02:17:12;99920.44;;;0.78;100.00
74905;BME280;63465;50.862;6.220;2024-01-07T02:19:37;99922.94;;;0.81;100.00
74905;BME280;63465;50.862;6.220;2024-01-07T02:22:03;99926.41;;;0.80;100.00
74905;BME280;63465;50.862;6.220;2024-01-07T02:24:28;99921.09;;;0.84;100.00
74905;BME280;63465;50.862;6.220;2024-01-07T02:26:55;99925.41;;;0.84;100.00
74905;BME280;63465;50.862;6.220;2024-01-07T02:29:20;99928.97;;;0.80;100.00
74905;BME280;63465;50.862;6.220;2024-01-07T02:31:45;99914.28;;;0.82;100.00
74905;BME280;63465;50.862;6.220;2024-01-07T02:34:11;99929.47;;;0.92;100.00
74905;BME280;63465;50.862;6.220;2024-01-07T02:36:36;99928.94;;;0.81;100.00
74905;BME280;63465;50.862;6.220;2024-01-07T02:39:02;99937.34;;;0.88;100.00
74905;BME280;63465;50.862;6.220;2024-01-07T02:41:27;99929.34;;;0.97;100.00
74905;BME280;63465;50.862;6.220;2024-01-07T02:43:52;99936.47;;;0.89;100.00
74905;BME280;63465;50.862;6.220;2024-01-07T02:46:19;99933.63;;;0.98;100.00
74905;BME280;63465;50.862;6.220;2024-01-07T02:48:45;99936.97;;;1.02;100.00
74905;BME280;63465;50.862;6.220;2024-01-07T02:51:10;99935.28;;;1.01;100.00
74905;BME280;63465;50.862;6.220;2024-01-07T02:53:35;99940.31;;;1.05;100.00
74905;BME280;63465;50.862;6.220;2024-01-07T02:56:00;99934.66;;;0.92;100.00
74905;BME280;63465;50.862;6.220;2024-01-07T02:58:26;99940.59;;;0.94;100.00
74905;BME280;63465;50.862;6.220;2024-01-07T03:00:51;99933.00;;;0.90;100.00
74905;BME280;63465;50.862;6.220;2024-01-07T03:03:17;99937.94;;;0.98;100.00
74905;BME280;63465;50.862;6.220;2024-01-07T03:05:42;99938.03;;;0.94;100.00
74905;BME280;63465;50.862;6.220;2024-01-07T03:08:07;99936.88;;;1.05;100.00
74905;BME280;63465;50.862;6.220;2024-01-07T03:10:33;99937.94;;;0.98;100.00
74905;BME280;63465;50.862;6.220;2024-01-07T03:13:02;99941.66;;;0.87;100.00
74905;BME280;63465;50.862;6.220;2024-01-07T03:15:28;99947.47;;;0.95;100.00
74905;BME280;63465;50.862;6.220;2024-01-07T03:17:53;99952.50;;;1.00;100.00
74905;BME280;63465;50.862;6.220;2024-01-07T03:20:18;99951.69;;;0.98;100.00
74905;BME280;63465;50.862;6.220;2024-01-07T03:22:44;99957.75;;;0.97;100.00
74905;BME280;63465;50.862;6.220;2024-01-07T03:25:09;99956.88;;;0.98;100.00
74905;BME280;63465;50.862;6.220;2024-01-07T03:27:34;99964.47;;;1.03;100.00
74905;BME280;63465;50.862;6.220;2024-01-07T03:30:00;99961.97;;;1.00;100.00
74905;BME280;63465;50.862;6.220;2024-01-07T03:32:25;99958.31;;;1.08;100.00
74905;BME280;63465;50.862;6.220;2024-01-07T03:34:50;99958.47;;;1.02;100.00
74905;BME280;63465;50.862;6.220;2024-01-07T03:37:15;99955.84;;;1.04;100.00
74905;BME280;63465;50.862;6.220;2024-01-07T03:39:42;99960.00;;;1.09;100.00
74905;BME280;63465;50.862;6.220;2024-01-07T03:42:07;99954.91;;;1.06;100.00
74905;BME280;63465;50.862;6.220;2024-01-07T03:44:39;99959.38;;;1.01;100.00
74905;BME280;63465;50.862;6.220;2024-01-07T03:47:05;99957.59;;;1.03;100.00
74905;BME280;63465;50.862;6.220;2024-01-07T03:49:31;99957.63;;;1.02;100.00
74905;BME280;63465;50.862;6.220;2024-01-07T03:51:56;99959.31;;;1.03;100.00
74905;BME280;63465;50.862;6.220;2024-01-07T03:54:22;99960.16;;;1.03;100.00
74905;BME280;63465;50.862;6.220;2024-01-07T03:56:47;99961.31;;;0.93;100.00
74905;BME280;63465;50.862;6.220;2024-01-07T03:59:12;99961.78;;;1.07;100.00
74905;BME280;63465;50.862;6.220;2024-01-07T04:01:37;99963.56;;;1.05;100.00
74905;BME280;63465;50.862;6.220;2024-01-07T04:04:03;99965.25;;;1.06;100.00
74905;BME280;63465;50.862;6.220;2024-01-07T04:06:28;99973.63;;;1.14;100.00
74905;BME280;63465;50.862;6.220;2024-01-07T04:08:54;99966.22;;;1.02;100.00
74905;BME280;63465;50.862;6.220;2024-01-07T04:11:19;99972.53;;;0.92;100.00
74905;BME280;63465;50.862;6.220;2024-01-07T04:13:44;99968.88;;;0.99;100.00
74905;BME280;63465;50.862;6.220;2024-01-07T04:16:17;99974.97;;;0.96;100.00
74905;BME280;63465;50.862;6.220;2024-01-07T04:18:43;99966.47;;;0.93;100.00
74905;BME280;63465;50.862;6.220;2024-01-07T04:21:09;99974.25;;;0.91;100.00
74905;BME280;63465;50.862;6.220;2024-01-07T04:23:34;99980.38;;;0.87;100.00
74905;BME280;63465;50.862;6.220;2024-01-07T04:26:00;99975.03;;;0.95;100.00
74905;BME280;63465;50.862;6.220;2024-01-07T04:28:25;99987.09;;;0.94;100.00
74905;BME280;63465;50.862;6.220;2024-01-07T04:30:50;99988.78;;;0.95;100.00
74905;BME280;63465;50.862;6.220;2024-01-07T04:33:16;99987.94;;;0.95;100.00
74905;BME280;63465;50.862;6.220;2024-01-07T04:35:41;99991.22;;;1.00;100.00
74905;BME280;63465;50.862;6.220;2024-01-07T04:38:06;99987.72;;;1.03;100.00
74905;BME280;63465;50.862;6.220;2024-01-07T04:40:32;99987.69;;;1.04;100.00
74905;BME280;63465;50.862;6.220;2024-01-07T04:42:57;99993.66;;;1.06;100.00
74905;BME280;63465;50.862;6.220;2024-01-07T04:45:23;99997.19;;;1.02;100.00
74905;BME280;63465;50.862;6.220;2024-01-07T04:47:48;100000.78;;;0.96;100.00
74905;BME280;63465;50.862;6.220;2024-01-07T04:50:13;100001.88;;;0.88;100.00
74905;BME280;63465;50.862;6.220;2024-01-07T04:52:40;100006.94;;;0.92;100.00
74905;BME280;63465;50.862;6.220;2024-01-07T04:55:05;100007.72;;;0.94;100.00
74905;BME280;63465;50.862;6.220;2024-01-07T04:57:31;100006.16;;;0.89;100.00
74905;BME280;63465;50.862;6.220;2024-01-07T04:59:56;100018.81;;;0.98;100.00
74905;BME280;63465;50.862;6.220;2024-01-07T05:02:21;100014.72;;;0.91;100.00
74905;BME280;63465;50.862;6.220;2024-01-07T05:04:47;100011.25;;;0.92;100.00
74905;BME280;63465;50.862;6.220;2024-01-07T05:07:12;100018.06;;;0.94;100.00
74905;BME280;63465;50.862;6.220;2024-01-07T05:09:37;100025.03;;;0.91;100.00
74905;BME280;63465;50.862;6.220;2024-01-07T05:12:03;100018.88;;;0.96;100.00
74905;BME280;63465;50.862;6.220;2024-01-07T05:14:28;100022.41;;;0.92;100.00
74905;BME280;63465;50.862;6.220;2024-01-07T05:16:54;100018.88;;;0.96;100.00
74905;BME280;63465;50.862;6.220;2024-01-07T05:19:20;100029.28;;;0.93;100.00
74905;BME280;63465;50.862;6.220;2024-01-07T05:21:45;100030.28;;;0.88;100.00
74905;BME280;63465;50.862;6.220;2024-01-07T05:24:10;100032.63;;;0.97;100.00
74905;BME280;63465;50.862;6.220;2024-01-07T05:26:39;100037.25;;;0.84;100.00
74905;BME280;63465;50.862;6.220;2024-01-07T05:29:05;100035.03;;;0.71;100.00
74905;BME280;63465;50.862;6.220;2024-01-07T05:31:30;100040.03;;;0.77;100.00
74905;BME280;63465;50.862;6.220;2024-01-07T05:33:56;100043.38;;;0.80;100.00
74905;BME280;63465;50.862;6.220;2024-01-07T05:36:21;100049.47;;;0.78;100.00
74905;BME280;63465;50.862;6.220;2024-01-07T05:38:46;100053.72;;;0.80;100.00
74905;BME280;63465;50.862;6.220;2024-01-07T05:41:12;100056.81;;;0.93;100.00
74905;BME280;63465;50.862;6.220;2024-01-07T05:43:37;100048.16;;;0.95;100.00
74905;BME280;63465;50.862;6.220;2024-01-07T05:46:02;100042.66;;;0.75;100.00
74905;BME280;63465;50.862;6.220;2024-01-07T05:48:28;100046.09;;;0.76;100.00
74905;BME280;63465;50.862;6.220;2024-01-07T05:50:54;100050.47;;;0.72;100.00
74905;BME280;63465;50.862;6.220;2024-01-07T05:53:19;100060.47;;;0.86;100.00
74905;BME280;63465;50.862;6.220;2024-01-07T05:55:44;100065.78;;;0.80;100.00
74905;BME280;63465;50.862;6.220;2024-01-07T05:58:11;100065.72;;;0.81;100.00
74905;BME280;63465;50.862;6.220;2024-01-07T06:00:37;100062.53;;;0.72;100.00
74905;BME280;63465;50.862;6.220;2024-01-07T06:03:03;100074.53;;;0.74;100.00
74905;BME280;63465;50.862;6.220;2024-01-07T06:05:29;100067.38;;;0.84;100.00
74905;BME280;63465;50.862;6.220;2024-01-07T06:07:54;100075.47;;;0.70;100.00
74905;BME280;63465;50.862;6.220;2024-01-07T06:10:19;100083.00;;;0.79;100.00
74905;BME280;63465;50.862;6.220;2024-01-07T06:12:45;100082.28;;;0.73;100.00
74905;BME280;63465;50.862;6.220;2024-01-07T06:15:10;100088.28;;;0.75;100.00
74905;BME280;63465;50.862;6.220;2024-01-07T06:17:35;100087.22;;;0.82;100.00
74905;BME280;63465;50.862;6.220;2024-01-07T06:20:00;100090.63;;;0.84;100.00
74905;BME280;63465;50.862;6.220;2024-01-07T06:22:26;100091.13;;;0.64;100.00
74905;BME280;63465;50.862;6.220;2024-01-07T06:24:51;100098.75;;;0.69;100.00
74905;BME280;63465;50.862;6.220;2024-01-07T06:27:16;100100.50;;;0.67;100.00
74905;BME280;63465;50.862;6.220;2024-01-07T06:29:42;100113.31;;;0.71;100.00
74905;BME280;63465;50.862;6.220;2024-01-07T06:32:07;100102.09;;;0.72;100.00
74905;BME280;63465;50.862;6.220;2024-01-07T06:34:32;100108.09;;;0.73;100.00
74905;BME280;63465;50.862;6.220;2024-01-07T06:36:58;100106.91;;;0.86;100.00
74905;BME280;63465;50.862;6.220;2024-01-07T06:39:24;100113.03;;;0.82;100.00
74905;BME280;63465;50.862;6.220;2024-01-07T06:41:52;100122.47;;;0.83;100.00
74905;BME280;63465;50.862;6.220;2024-01-07T06:44:17;100120.72;;;0.85;100.00
74905;BME280;63465;50.862;6.220;2024-01-07T06:46:42;100123.56;;;0.74;100.00
74905;BME280;63465;50.862;6.220;2024-01-07T06:49:08;100124.31;;;0.78;100.00
74905;BME280;63465;50.862;6.220;2024-01-07T06:51:33;100130.38;;;0.77;100.00
74905;BME280;63465;50.862;6.220;2024-01-07T06:53:59;100129.56;;;0.75;100.00
74905;BME280;63465;50.862;6.220;2024-01-07T06:56:24;100132.28;;;0.69;100.00
74905;BME280;63465;50.862;6.220;2024-01-07T06:58:49;100140.91;;;0.68;100.00
74905;BME280;63465;50.862;6.220;2024-01-07T07:01:19;100140.78;;;0.74;100.00
74905;BME280;63465;50.862;6.220;2024-01-07T07:03:44;100144.19;;;0.74;100.00
74905;BME280;63465;50.862;6.220;2024-01-07T07:06:10;100140.06;;;0.67;100.00
74905;BME280;63465;50.862;6.220;2024-01-07T07:08:35;100143.50;;;0.68;100.00
74905;BME280;63465;50.862;6.220;2024-01-07T07:11:01;100143.47;;;0.69;100.00
74905;BME280;63465;50.862;6.220;2024-01-07T07:13:26;100147.81;;;0.67;100.00
74905;BME280;63465;50.862;6.220;2024-01-07T07:15:51;100148.94;;;0.55;100.00
74905;BME280;63465;50.862;6.220;2024-01-07T07:18:16;100163.13;;;0.75;100.00
74905;BME280;63465;50.862;6.220;2024-01-07T07:20:42;100166.06;;;0.59;100.00
74905;BME280;63465;50.862;6.220;2024-01-07T07:23:07;100172.56;;;0.76;100.00
74905;BME280;63465;50.862;6.220;2024-01-07T07:25:32;100178.13;;;0.57;100.00
74905;BME280;63465;50.862;6.220;2024-01-07T07:27:58;100180.97;;;0.47;100.00
74905;BME280;63465;50.862;6.220;2024-01-07T07:30:23;100184.81;;;0.66;100.00
74905;BME280;63465;50.862;6.220;2024-01-07T07:32:48;100192.09;;;0.49;100.00
74905;BME280;63465;50.862;6.220;2024-01-07T07:35:14;100197.84;;;0.61;100.00
74905;BME280;63465;50.862;6.220;2024-01-07T07:37:39;100192.91;;;0.51;100.00
74905;BME280;63465;50.862;6.220;2024-01-07T07:40:05;100201.75;;;0.39;100.00
74905;BME280;63465;50.862;6.220;2024-01-07T07:42:30;100206.09;;;0.37;100.00
74905;BME280;63465;50.862;6.220;2024-01-07T07:44:55;100215.59;;;0.35;100.00
74905;BME280;63465;50.862;6.220;2024-01-07T07:47:21;100220.94;;;0.27;100.00
74905;BME280;63465;50.862;6.220;2024-01-07T07:49:46;100220.81;;;0.32;100.00
74905;BME280;63465;50.862;6.220;2024-01-07T07:52:11;100231.22;;;0.29;100.00
74905;BME280;63465;50.862;6.220;2024-01-07T07:54:39;100236.22;;;0.37;100.00
74905;BME280;63465;50.862;6.220;2024-01-07T07:57:05;100227.00;;;0.25;100.00
74905;BME280;63465;50.862;6.220;2024-01-07T07:59:30;100231.28;;;0.26;100.00
74905;BME280;63465;50.862;6.220;2024-01-07T08:01:55;100229.00;;;0.11;100.00
74905;BME280;63465;50.862;6.220;2024-01-07T08:04:21;100240.00;;;0.19;100.00
74905;BME280;63465;50.862;6.220;2024-01-07T08:06:46;100246.75;;;0.26;100.00
74905;BME280;63465;50.862;6.220;2024-01-07T08:09:11;100252.78;;;0.25;100.00
74905;BME280;63465;50.862;6.220;2024-01-07T08:11:37;100258.06;;;0.19;100.00
74905;BME280;63465;50.862;6.220;2024-01-07T08:14:02;100257.94;;;0.25;100.00
74905;BME280;63465;50.862;6.220;2024-01-07T08:16:27;100250.50;;;0.10;100.00
74905;BME280;63465;50.862;6.220;2024-01-07T08:18:53;100263.09;;;0.25;100.00
74905;BME280;63465;50.862;6.220;2024-01-07T08:21:21;100256.41;;;0.16;100.00
74905;BME280;63465;50.862;6.220;2024-01-07T08:23:48;100267.66;;;0.12;100.00
74905;BME280;63465;50.862;6.220;2024-01-07T08:26:18;100261.63;;;0.12;100.00
74905;BME280;63465;50.862;6.220;2024-01-07T08:28:43;100274.56;;;0.10;100.00
74905;BME280;63465;50.862;6.220;2024-01-07T08:31:08;100272.75;;;0.15;100.00
74905;BME280;63465;50.862;6.220;2024-01-07T08:33:34;100280.56;;;0.11;100.00
74905;BME280;63465;50.862;6.220;2024-01-07T08:35:59;100279.69;;;0.12;100.00
74905;BME280;63465;50.862;6.220;2024-01-07T08:38:24;100290.81;;;0.14;100.00
74905;BME280;63465;50.862;6.220;2024-01-07T08:40:50;100282.22;;;0.15;100.00
74905;BME280;63465;50.862;6.220;2024-01-07T08:43:15;100285.75;;;0.09;100.00
74905;BME280;63465;50.862;6.220;2024-01-07T08:45:41;100295.19;;;0.10;100.00
74905;BME280;63465;50.862;6.220;2024-01-07T08:48:07;100288.22;;;0.15;100.00
74905;BME280;63465;50.862;6.220;2024-01-07T08:50:32;100305.63;;;0.04;100.00
74905;BME280;63465;50.862;6.220;2024-01-07T08:52:57;100305.47;;;0.12;100.00
74905;BME280;63465;50.862;6.220;2024-01-07T08:55:22;100301.25;;;0.08;100.00
74905;BME280;63465;50.862;6.220;2024-01-07T08:57:48;100296.91;;;0.10;100.00
74905;BME280;63465;50.862;6.220;2024-01-07T09:00:14;100302.31;;;-0.06;100.00
74905;BME280;63465;50.862;6.220;2024-01-07T09:02:40;100305.50;;;0.10;100.00
74905;BME280;63465;50.862;6.220;2024-01-07T09:05:05;100309.06;;;0.03;100.00
74905;BME280;63465;50.862;6.220;2024-01-07T09:07:31;100314.22;;;0.03;100.00
74905;BME280;63465;50.862;6.220;2024-01-07T09:09:57;100316.56;;;0.17;100.00
74905;BME280;63465;50.862;6.220;2024-01-07T09:12:25;100316.84;;;0.02;100.00
74905;BME280;63465;50.862;6.220;2024-01-07T09:14:52;100320.38;;;-0.06;100.00
74905;BME280;63465;50.862;6.220;2024-01-07T09:17:17;100321.09;;;0.04;100.00
74905;BME280;63465;50.862;6.220;2024-01-07T09:19:43;100325.44;;;0.01;100.00
74905;BME280;63465;50.862;6.220;2024-01-07T09:22:09;100322.09;;;-0.06;100.00
74905;BME280;63465;50.862;6.220;2024-01-07T09:24:34;100323.75;;;-0.04;100.00
74905;BME280;63465;50.862;6.220;2024-01-07T09:26:59;100335.47;;;0.16;100.00
74905;BME280;63465;50.862;6.220;2024-01-07T09:29:25;100337.31;;;0.09;100.00
74905;BME280;63465;50.862;6.220;2024-01-07T09:31:50;100339.91;;;0.09;100.00
74905;BME280;63465;50.862;6.220;2024-01-07T09:34:15;100341.63;;;0.09;100.00
74905;BME280;63465;50.862;6.220;2024-01-07T09:36:40;100340.09;;;-0.05;100.00
74905;BME280;63465;50.862;6.220;2024-01-07T09:39:06;100348.47;;;0.10;100.00
74905;BME280;63465;50.862;6.220;2024-01-07T09:41:32;100340.81;;;0.07;100.00
74905;BME280;63465;50.862;6.220;2024-01-07T09:43:59;100343.44;;;0.04;100.00
74905;BME280;63465;50.862;6.220;2024-01-07T09:46:24;100348.69;;;-0.04;100.00
74905;BME280;63465;50.862;6.220;2024-01-07T09:48:50;100347.03;;;-0.08;100.00
74905;BME280;63465;50.862;6.220;2024-01-07T09:51:19;100349.63;;;-0.08;100.00
74905;BME280;63465;50.862;6.220;2024-01-07T09:53:47;100359.03;;;-0.06;100.00
74905;BME280;63465;50.862;6.220;2024-01-07T09:56:26;100356.44;;;-0.06;100.00
74905;BME280;63465;50.862;6.220;2024-01-07T09:58:53;100355.56;;;-0.03;100.00
74905;BME280;63465;50.862;6.220;2024-01-07T10:01:19;100359.06;;;-0.07;100.00
74905;BME280;63465;50.862;6.220;2024-01-07T10:03:44;100366.03;;;-0.14;100.00
74905;BME280;63465;50.862;6.220;2024-01-07T10:06:11;100354.81;;;-0.10;100.00
74905;BME280;63465;50.862;6.220;2024-01-07T10:08:37;100361.81;;;-0.18;100.00
74905;BME280;63465;50.862;6.220;2024-01-07T10:11:02;100358.22;;;-0.08;100.00
74905;BME280;63465;50.862;6.220;2024-01-07T10:13:28;100365.03;;;-0.05;100.00
74905;BME280;63465;50.862;6.220;2024-01-07T10:15:53;100373.50;;;0.05;100.00
74905;BME280;63465;50.862;6.220;2024-01-07T10:18:20;100363.38;;;-0.08;100.00
74905;BME280;63465;50.862;6.220;2024-01-07T10:20:45;100376.91;;;0.07;100.00
74905;BME280;63465;50.862;6.220;2024-01-07T10:23:11;100381.28;;;0.02;100.00
74905;BME280;63465;50.862;6.220;2024-01-07T10:25:36;100378.59;;;0.08;100.00
74905;BME280;63465;50.862;6.220;2024-01-07T10:28:03;100382.06;;;0.07;100.00
74905;BME280;63465;50.862;6.220;2024-01-07T10:30:29;100382.06;;;0.07;100.00
74905;BME280;63465;50.862;6.220;2024-01-07T10:32:57;100377.75;;;0.07;100.00
74905;BME280;63465;50.862;6.220;2024-01-07T10:35:27;100376.31;;;-0.11;100.00
74905;BME280;63465;50.862;6.220;2024-01-07T10:37:53;100381.47;;;-0.11;100.00
74905;BME280;63465;50.862;6.220;2024-01-07T10:40:18;100381.28;;;0.02;100.00
74905;BME280;63465;50.862;6.220;2024-01-07T10:42:44;100387.44;;;-0.09;100.00
74905;BME280;63465;50.862;6.220;2024-01-07T10:45:10;100387.44;;;-0.09;100.00
74905;BME280;63465;50.862;6.220;2024-01-07T10:47:36;100397.78;;;-0.10;100.00
74905;BME280;63465;50.862;6.220;2024-01-07T10:50:02;100387.53;;;-0.15;100.00
74905;BME280;63465;50.862;6.220;2024-01-07T10:52:28;100387.34;;;-0.03;100.00
74905;BME280;63465;50.862;6.220;2024-01-07T10:54:56;100397.78;;;-0.12;100.00
74905;BME280;63465;50.862;6.220;2024-01-07T10:57:35;100397.72;;;-0.07;100.00
74905;BME280;63465;50.862;6.220;2024-01-07T11:00:02;100398.66;;;-0.13;100.00
74905;BME280;63465;50.862;6.220;2024-01-07T11:02:41;100393.56;;;-0.16;100.00
74905;BME280;63465;50.862;6.220;2024-01-07T11:05:20;100408.22;;;-0.18;100.00
74905;BME280;63465;50.862;6.220;2024-01-07T11:11:06;100415.00;;;-0.14;100.00
74905;BME280;63465;50.862;6.220;2024-01-07T11:13:37;100405.38;;;-0.03;100.00
74905;BME280;63465;50.862;6.220;2024-01-07T11:16:07;100402.84;;;-0.06;100.00
74905;BME280;63465;50.862;6.220;2024-01-07T11:18:59;100395.94;;;-0.04;100.00
74905;BME280;63465;50.862;6.220;2024-01-07T11:21:24;100405.50;;;-0.10;100.00
74905;BME280;63465;50.862;6.220;2024-01-07T11:23:51;100408.97;;;-0.11;100.00
74905;BME280;63465;50.862;6.220;2024-01-07T11:26:18;100406.25;;;-0.04;100.00
74905;BME280;63465;50.862;6.220;2024-01-07T11:28:56;100413.94;;;-0.01;100.00
74905;BME280;63465;50.862;6.220;2024-01-07T11:34:08;100398.81;;;-0.22;100.00
74905;BME280;63465;50.862;6.220;2024-01-07T11:36:35;100411.97;;;-0.39;100.00
74905;BME280;63465;50.862;6.220;2024-01-07T11:39:01;100406.78;;;-0.37;100.00
74905;BME280;63465;50.862;6.220;2024-01-07T11:41:33;100412.78;;;-0.37;100.00
74905;BME280;63465;50.862;6.220;2024-01-07T11:43:59;100420.50;;;-0.35;100.00
74905;BME280;63465;50.862;6.220;2024-01-07T11:46:26;100421.31;;;-0.33;100.00
74905;BME280;63465;50.862;6.220;2024-01-07T11:48:57;100416.78;;;-0.17;100.00
74905;BME280;63465;50.862;6.220;2024-01-07T11:51:27;100416.97;;;-0.29;100.00
74905;BME280;63465;50.862;6.220;2024-01-07T11:53:53;100416.78;;;-0.17;100.00
74905;BME280;63465;50.862;6.220;2024-01-07T11:56:19;100419.28;;;-0.13;100.00
74905;BME280;63465;50.862;6.220;2024-01-07T11:58:44;100424.56;;;-0.20;100.00
74905;BME280;63465;50.862;6.220;2024-01-07T12:01:10;100427.13;;;-0.19;100.00
74905;BME280;63465;50.862;6.220;2024-01-07T12:03:35;100422.78;;;-0.15;100.00
74905;BME280;63465;50.862;6.220;2024-01-07T12:06:01;100429.66;;;-0.16;100.00
74905;BME280;63465;50.862;6.220;2024-01-07T12:08:26;100430.47;;;-0.14;100.00
74905;BME280;63465;50.862;6.220;2024-01-07T12:10:52;100424.72;;;-0.31;100.00
74905;BME280;63465;50.862;6.220;2024-01-07T12:13:17;100431.69;;;-0.36;100.00
74905;BME280;63465;50.862;6.220;2024-01-07T12:15:43;100431.31;;;-0.13;100.00
74905;BME280;63465;50.862;6.220;2024-01-07T12:18:09;100438.38;;;-0.24;100.00
74905;BME280;63465;50.862;6.220;2024-01-07T12:20:34;100437.44;;;-0.20;100.00
74905;BME280;63465;50.862;6.220;2024-01-07T12:23:10;100439.16;;;-0.19;100.00
74905;BME280;63465;50.862;6.220;2024-01-07T12:25:35;100437.44;;;-0.19;100.00
74905;BME280;63465;50.862;6.220;2024-01-07T12:28:02;100445.38;;;-0.34;100.00
74905;BME280;63465;50.862;6.220;2024-01-07T12:30:27;100444.31;;;-0.19;100.00
74905;BME280;63465;50.862;6.220;2024-01-07T12:32:53;100444.28;;;-0.18;100.00
74905;BME280;63465;50.862;6.220;2024-01-07T12:35:19;100446.97;;;-0.24;100.00
74905;BME280;63465;50.862;6.220;2024-01-07T12:37:44;100447.81;;;-0.25;100.00
74905;BME280;63465;50.862;6.220;2024-01-07T12:40:10;100442.78;;;-0.33;100.00
74905;BME280;63465;50.862;6.220;2024-01-07T12:42:37;100445.41;;;-0.36;100.00
74905;BME280;63465;50.862;6.220;2024-01-07T12:45:06;100448.53;;;-0.15;100.00
74905;BME280;63465;50.862;6.220;2024-01-07T12:47:31;100450.28;;;-0.17;100.00
74905;BME280;63465;50.862;6.220;2024-01-07T12:49:56;100458.97;;;-0.23;100.00
74905;BME280;63465;50.862;6.220;2024-01-07T12:52:23;100451.31;;;-0.27;100.00